createdAt,value
2022-08-03T00:00:24.100Z,20.51
2022-08-03T00:01:16.255Z,20.51
2022-08-03T00:01:47.583Z,20.51
2022-08-03T00:02:19.083Z,20.50
2022-08-03T00:02:50.485Z,20.50
2022-08-03T00:03:22.394Z,20.50
2022-08-03T00:03:53.773Z,20.51
2022-08-03T00:04:34.338Z,20.49
2022-08-03T00:05:08.346Z,20.48
2022-08-03T00:05:40.088Z,20.48
2022-08-03T00:06:36.487Z,20.48
2022-08-03T00:07:08.535Z,20.48
2022-08-03T00:07:41.068Z,20.47
2022-08-03T00:08:12.563Z,20.49
2022-08-03T00:08:43.934Z,20.49
2022-08-03T00:09:15.269Z,20.48
2022-08-03T00:09:46.640Z,20.49
2022-08-03T00:10:17.964Z,20.48
2022-08-03T00:10:49.631Z,20.47
2022-08-03T00:11:40.859Z,20.47
2022-08-03T00:12:12.308Z,20.45
2022-08-03T00:12:43.793Z,20.46
2022-08-03T00:13:15.304Z,20.45
2022-08-03T00:13:46.938Z,20.44
2022-08-03T00:14:18.329Z,20.45
2022-08-03T00:14:49.656Z,20.46
2022-08-03T00:15:20.995Z,20.46
2022-08-03T00:17:00.612Z,20.45
2022-08-03T00:17:53.232Z,20.44
2022-08-03T00:18:23.257Z,20.42
2022-08-03T00:18:54.646Z,20.42
2022-08-03T00:19:26.108Z,20.42
2022-08-03T00:19:57.428Z,20.43
2022-08-03T00:20:28.763Z,20.42
2022-08-03T00:21:00.100Z,20.42
2022-08-03T00:21:31.680Z,20.42
2022-08-03T00:22:21.419Z,20.42
2022-08-03T00:22:55.450Z,20.43
2022-08-03T00:23:29.407Z,20.43
2022-08-03T00:24:18.187Z,20.43
2022-08-03T00:24:49.552Z,20.43
2022-08-03T00:25:20.991Z,20.41
2022-08-03T00:25:52.442Z,20.41
2022-08-03T00:26:23.849Z,20.40
2022-08-03T00:26:55.227Z,20.38
2022-08-03T00:27:26.603Z,20.39
2022-08-03T00:27:58.198Z,20.39
2022-08-03T00:28:29.638Z,20.37
2022-08-03T00:29:01.023Z,20.38
2022-08-03T00:30:40.399Z,20.36
2022-08-03T00:31:13.693Z,20.37
2022-08-03T00:31:52.115Z,20.36
2022-08-03T00:32:24.830Z,20.37
2022-08-03T00:32:56.698Z,20.37
2022-08-03T00:33:28.103Z,20.36
2022-08-03T00:34:29.816Z,20.37
2022-08-03T00:35:11.334Z,20.34
2022-08-03T00:35:51.023Z,20.33
2022-08-03T00:36:22.637Z,20.30
2022-08-03T00:36:54.011Z,20.30
2022-08-03T00:37:41.473Z,20.28
2022-08-03T00:38:13.364Z,20.28
2022-08-03T00:38:44.755Z,20.30
2022-08-03T00:39:16.135Z,20.29
2022-08-03T00:39:48.089Z,20.30
2022-08-03T00:40:20.744Z,20.30
2022-08-03T00:40:52.079Z,20.30
2022-08-03T00:41:23.428Z,20.29
2022-08-03T00:41:54.765Z,20.29
2022-08-03T00:42:27.392Z,20.28
2022-08-03T00:43:02.759Z,20.28
2022-08-03T00:43:34.244Z,20.27
2022-08-03T00:44:05.671Z,20.28
2022-08-03T00:44:41.952Z,20.26
2022-08-03T00:45:13.388Z,20.25
2022-08-03T00:45:44.769Z,20.24
2022-08-03T00:46:20.990Z,20.22
2022-08-03T00:46:53.193Z,20.21
2022-08-03T00:47:43.067Z,20.20
2022-08-03T00:48:29.422Z,20.22
2022-08-03T00:49:04.467Z,20.20
2022-08-03T00:49:37.311Z,20.20
2022-08-03T00:50:09.029Z,20.20
2022-08-03T00:52:10.991Z,20.16
2022-08-03T00:52:42.622Z,20.15
2022-08-03T00:53:14.720Z,20.15
2022-08-03T00:54:04.811Z,20.15
2022-08-03T00:54:37.792Z,20.13
2022-08-03T00:55:10.445Z,20.14
2022-08-03T00:55:42.176Z,20.13
2022-08-03T00:56:17.485Z,20.12
2022-08-03T00:56:59.618Z,20.13
2022-08-03T00:57:33.247Z,20.13
2022-08-03T00:58:06.603Z,20.12
2022-08-03T00:58:37.979Z,20.13
2022-08-03T00:59:10.475Z,20.12
2022-08-03T00:59:41.879Z,20.12
2022-08-03T01:00:16.312Z,20.11
2022-08-03T01:00:47.785Z,20.12
2022-08-03T01:01:19.279Z,20.12
2022-08-03T01:01:50.820Z,20.12
2022-08-03T01:02:22.334Z,20.14
2022-08-03T01:02:54.324Z,20.14
2022-08-03T01:03:25.700Z,20.13
2022-08-03T01:03:57.056Z,20.11
2022-08-03T01:04:46.964Z,20.10
2022-08-03T01:05:19.535Z,20.09
2022-08-03T01:06:27.167Z,20.09
2022-08-03T01:07:20.969Z,20.07
2022-08-03T01:08:29.406Z,20.07
2022-08-03T01:09:11.877Z,20.06
2022-08-03T01:10:01.738Z,20.05
2022-08-03T01:10:57.652Z,20.04
2022-08-03T01:12:00.742Z,20.03
2022-08-03T01:12:39.328Z,20.01
2022-08-03T01:13:13.958Z,20.00
2022-08-03T01:14:20.955Z,19.99
2022-08-03T01:15:00.183Z,20.00
2022-08-03T01:15:50.989Z,19.99
2022-08-03T01:16:35.856Z,19.98
2022-08-03T01:17:17.876Z,19.97
2022-08-03T01:17:58.007Z,19.97
2022-08-03T01:18:50.692Z,19.97
2022-08-03T01:19:42.791Z,19.96
2022-08-03T01:20:14.968Z,19.95
2022-08-03T01:20:49.628Z,19.94
2022-08-03T01:21:27.611Z,19.93
2022-08-03T01:22:37.145Z,19.91
2022-08-03T01:23:32.904Z,19.88
2022-08-03T01:25:43.015Z,19.88
2022-08-03T01:26:42.491Z,19.86
2022-08-03T01:27:49.573Z,19.84
2022-08-03T01:29:03.412Z,19.83
2022-08-03T01:29:49.089Z,19.81
2022-08-03T01:30:21.474Z,19.79
2022-08-03T01:31:13.169Z,19.76
2022-08-03T01:32:58.802Z,19.75
2022-08-03T01:33:22.030Z,19.73
2022-08-03T01:34:00.094Z,19.72
2022-08-03T01:34:36.511Z,19.71
2022-08-03T01:35:26.099Z,19.70
2022-08-03T01:36:01.942Z,19.70
2022-08-03T01:36:37.978Z,19.70
2022-08-03T01:37:12.175Z,19.71
2022-08-03T01:37:57.876Z,19.72
2022-08-03T01:38:35.719Z,19.72
2022-08-03T01:39:11.458Z,19.72
2022-08-03T01:39:44.255Z,19.71
2022-08-03T01:40:17.387Z,19.69
2022-08-03T01:40:53.857Z,19.70
2022-08-03T01:41:31.028Z,19.70
2022-08-03T01:42:06.208Z,19.70
2022-08-03T01:42:39.848Z,19.69
2022-08-03T01:44:26.193Z,19.70
2022-08-03T01:44:29.357Z,19.70
2022-08-03T01:45:53.923Z,19.67
2022-08-03T01:46:26.459Z,19.65
2022-08-03T01:47:00.477Z,19.63
2022-08-03T01:47:32.928Z,19.62
2022-08-03T01:48:05.483Z,19.61
2022-08-03T01:48:39.658Z,19.61
2022-08-03T01:49:13.260Z,19.61
2022-08-03T01:49:45.523Z,19.60
2022-08-03T01:50:22.426Z,19.61
2022-08-03T01:50:56.548Z,19.62
2022-08-03T01:51:58.384Z,19.61
2022-08-03T01:52:21.547Z,19.63
2022-08-03T01:52:54.679Z,19.62
2022-08-03T01:53:27.526Z,19.62
2022-08-03T01:54:00.509Z,19.63
2022-08-03T01:54:40.942Z,19.63
2022-08-03T01:55:32.034Z,19.63
2022-08-03T01:56:24.590Z,19.63
2022-08-03T01:56:58.914Z,19.61
2022-08-03T01:57:30.902Z,19.60
2022-08-03T01:58:05.300Z,19.59
2022-08-03T01:58:40.680Z,19.59
2022-08-03T01:59:14.460Z,19.59
2022-08-03T01:59:48.624Z,19.57
2022-08-03T02:00:20.220Z,19.58
2022-08-03T02:00:53.065Z,19.58
2022-08-03T02:01:25.907Z,19.59
2022-08-03T02:02:37.327Z,19.60
2022-08-03T02:03:12.091Z,19.60
2022-08-03T02:04:02.768Z,19.60
2022-08-03T02:04:35.782Z,19.59
2022-08-03T02:05:10.739Z,19.59
2022-08-03T02:05:46.273Z,19.59
2022-08-03T02:06:59.814Z,19.60
2022-08-03T02:07:12.691Z,19.59
2022-08-03T02:07:46.267Z,19.60
2022-08-03T02:08:19.056Z,19.59
2022-08-03T02:08:52.560Z,19.59
2022-08-03T02:09:26.287Z,19.59
2022-08-03T02:09:59.020Z,19.59
2022-08-03T02:10:34.804Z,19.59
2022-08-03T02:11:07.972Z,19.58
2022-08-03T02:11:58.079Z,19.58
2022-08-03T02:12:32.369Z,19.58
2022-08-03T02:13:06.567Z,19.58
2022-08-03T02:13:38.480Z,19.58
2022-08-03T02:14:10.957Z,19.57
2022-08-03T02:14:45.587Z,19.56
2022-08-03T02:15:19.180Z,19.55
2022-08-03T02:15:52.801Z,19.54
2022-08-03T02:16:24.613Z,19.55
2022-08-03T02:16:57.829Z,19.53
2022-08-03T02:17:38.594Z,19.52
2022-08-03T02:18:12.833Z,19.50
2022-08-03T02:18:47.647Z,19.50
2022-08-03T02:19:20.497Z,19.48
2022-08-03T02:19:52.379Z,19.49
2022-08-03T02:20:24.960Z,19.49
2022-08-03T02:20:57.615Z,19.48
2022-08-03T02:21:56.374Z,19.48
2022-08-03T02:22:24.936Z,19.44
2022-08-03T02:22:56.268Z,19.43
2022-08-03T02:23:27.757Z,19.43
2022-08-03T02:23:59.397Z,19.42
2022-08-03T02:24:51.212Z,19.42
2022-08-03T02:25:23.520Z,19.40
2022-08-03T02:25:59.957Z,19.38
2022-08-03T02:26:37.919Z,19.38
2022-08-03T02:27:22.152Z,19.38
2022-08-03T02:28:01.655Z,19.38
2022-08-03T02:28:37.163Z,19.39
2022-08-03T02:29:15.208Z,19.40
2022-08-03T02:29:51.114Z,19.41
2022-08-03T02:30:29.687Z,19.41
2022-08-03T02:31:05.008Z,19.41
2022-08-03T02:31:37.692Z,19.39
2022-08-03T02:32:14.280Z,19.38
2022-08-03T02:32:51.620Z,19.40
2022-08-03T02:33:34.419Z,19.38
2022-08-03T02:34:14.283Z,19.37
2022-08-03T02:34:50.397Z,19.37
2022-08-03T02:35:43.786Z,19.36
2022-08-03T02:36:19.063Z,19.33
2022-08-03T02:36:53.576Z,19.31
2022-08-03T02:37:30.902Z,19.31
2022-08-03T02:38:04.975Z,19.32
2022-08-03T02:38:40.945Z,19.31
2022-08-03T02:39:33.239Z,19.31
2022-08-03T02:40:07.708Z,19.31
2022-08-03T02:40:41.812Z,19.31
2022-08-03T02:41:20.991Z,19.32
2022-08-03T02:42:02.056Z,19.31
2022-08-03T02:42:36.519Z,19.32
2022-08-03T02:43:11.879Z,19.32
2022-08-03T02:44:06.084Z,19.31
2022-08-03T02:44:40.248Z,19.29
2022-08-03T02:45:13.916Z,19.27
2022-08-03T02:46:07.956Z,19.27
2022-08-03T02:47:01.167Z,19.25
2022-08-03T02:47:53.881Z,19.26
2022-08-03T02:48:29.124Z,19.25
2022-08-03T02:49:49.472Z,19.26
2022-08-03T02:49:57.177Z,19.25
2022-08-03T02:51:21.279Z,19.25
2022-08-03T02:51:54.808Z,19.24
2022-08-03T02:52:28.763Z,19.25
2022-08-03T02:53:02.751Z,19.26
2022-08-03T02:53:36.226Z,19.26
2022-08-03T02:54:09.482Z,19.25
2022-08-03T02:54:41.556Z,19.25
2022-08-03T02:55:16.008Z,19.25
2022-08-03T02:55:49.124Z,19.25
2022-08-03T02:56:22.349Z,19.25
2022-08-03T02:56:57.462Z,19.25
2022-08-03T02:57:31.163Z,19.25
2022-08-03T02:58:04.388Z,19.26
2022-08-03T02:58:37.568Z,19.26
2022-08-03T02:59:11.928Z,19.25
2022-08-03T02:59:44.480Z,19.25
2022-08-03T03:00:19.652Z,19.26
2022-08-03T03:01:01.751Z,19.26
2022-08-03T03:01:33.912Z,19.26
2022-08-03T03:02:05.920Z,19.26
2022-08-03T03:03:31.849Z,19.26
2022-08-03T03:04:10.719Z,19.24
2022-08-03T03:05:52.794Z,19.25
2022-08-03T03:05:53.495Z,19.25
2022-08-03T03:07:17.921Z,19.23
2022-08-03T03:07:51.853Z,19.23
2022-08-03T03:08:26.049Z,19.22
2022-08-03T03:09:00.667Z,19.21
2022-08-03T03:09:41.635Z,19.21
2022-08-03T03:10:14.571Z,19.19
2022-08-03T03:10:46.876Z,19.17
2022-08-03T03:11:20.835Z,19.17
2022-08-03T03:11:53.782Z,19.17
2022-08-03T03:12:26.570Z,19.17
2022-08-03T03:12:59.477Z,19.17
2022-08-03T03:13:32.328Z,19.17
2022-08-03T03:14:04.032Z,19.17
2022-08-03T03:14:37.232Z,19.17
2022-08-03T03:15:08.986Z,19.17
2022-08-03T03:15:42.020Z,19.18
2022-08-03T03:16:15.204Z,19.19
2022-08-03T03:16:50.621Z,19.20
2022-08-03T03:17:24.519Z,19.19
2022-08-03T03:18:47.855Z,19.18
2022-08-03T03:19:20.484Z,19.17
2022-08-03T03:20:10.598Z,19.16
2022-08-03T03:21:00.750Z,19.16
2022-08-03T03:21:33.702Z,19.15
2022-08-03T03:22:07.367Z,19.14
2022-08-03T03:22:41.036Z,19.14
2022-08-03T03:23:17.710Z,19.13
2022-08-03T03:23:49.418Z,19.13
2022-08-03T03:24:21.179Z,19.10
2022-08-03T03:24:54.648Z,19.10
2022-08-03T03:25:26.364Z,19.09
2022-08-03T03:25:58.904Z,19.09
2022-08-03T03:26:30.659Z,19.10
2022-08-03T03:27:03.463Z,19.10
2022-08-03T03:27:35.239Z,19.09
2022-08-03T03:28:06.875Z,19.08
2022-08-03T03:28:38.606Z,19.08
2022-08-03T03:29:10.012Z,19.07
2022-08-03T03:29:42.163Z,19.06
2022-08-03T03:30:13.705Z,19.05
2022-08-03T03:30:45.242Z,19.05
2022-08-03T03:31:24.459Z,19.05
2022-08-03T03:31:57.299Z,19.05
2022-08-03T03:32:29.508Z,19.05
2022-08-03T03:33:01.023Z,19.06
2022-08-03T03:33:34.313Z,19.05
2022-08-03T03:34:05.735Z,19.06
2022-08-03T03:34:38.741Z,19.06
2022-08-03T03:35:10.680Z,19.06
2022-08-03T03:36:01.151Z,19.07
2022-08-03T03:36:32.552Z,19.06
2022-08-03T03:37:05.004Z,19.04
2022-08-03T03:37:36.333Z,19.03
2022-08-03T03:38:07.715Z,19.04
2022-08-03T03:38:39.169Z,19.03
2022-08-03T03:39:16.123Z,19.02
2022-08-03T03:39:47.751Z,19.02
2022-08-03T03:40:19.465Z,19.03
2022-08-03T03:40:51.236Z,19.03
2022-08-03T03:41:22.606Z,19.02
2022-08-03T03:41:54.283Z,19.02
2022-08-03T03:42:26.011Z,19.02
2022-08-03T03:43:15.933Z,19.01
2022-08-03T03:44:05.691Z,19.00
2022-08-03T03:44:37.132Z,19.00
2022-08-03T03:45:27.953Z,18.98
2022-08-03T03:46:00.579Z,18.96
2022-08-03T03:46:32.192Z,18.97
2022-08-03T03:47:03.780Z,18.94
2022-08-03T03:47:54.515Z,18.95
2022-08-03T03:48:26.568Z,18.95
2022-08-03T03:48:58.159Z,18.95
2022-08-03T03:49:31.004Z,18.96
2022-08-03T03:50:04.198Z,18.95
2022-08-03T03:50:57.188Z,18.96
2022-08-03T03:51:28.597Z,18.95
2022-08-03T03:51:59.988Z,18.93
2022-08-03T03:52:34.443Z,18.94
2022-08-03T03:53:10.246Z,18.94
2022-08-03T03:53:53.598Z,18.94
2022-08-03T03:54:25.551Z,18.94
2022-08-03T03:56:11.008Z,18.94
2022-08-03T03:57:00.910Z,18.94
2022-08-03T03:57:33.889Z,18.93
2022-08-03T03:58:05.774Z,18.93
2022-08-03T03:58:37.107Z,18.92
2022-08-03T03:59:08.505Z,18.93
2022-08-03T03:59:41.524Z,18.93
2022-08-03T04:00:14.619Z,18.92
2022-08-03T04:00:46.210Z,18.91
2022-08-03T04:01:18.050Z,18.91
2022-08-03T04:02:39.227Z,18.90
2022-08-03T04:03:12.068Z,18.90
2022-08-03T04:03:43.726Z,18.90
2022-08-03T04:04:33.388Z,18.90
2022-08-03T04:05:23.988Z,18.87
2022-08-03T04:06:14.363Z,18.87
2022-08-03T04:07:04.551Z,18.86
2022-08-03T04:08:14.133Z,18.86
2022-08-03T04:09:03.945Z,18.85
2022-08-03T04:10:58.910Z,18.82
2022-08-03T04:11:37.591Z,18.79
2022-08-03T04:12:09.157Z,18.78
2022-08-03T04:12:50.520Z,18.78
2022-08-03T04:13:22.924Z,18.79
2022-08-03T04:13:57.081Z,18.80
2022-08-03T04:14:35.880Z,18.81
2022-08-03T04:15:08.872Z,18.82
2022-08-03T04:15:42.024Z,18.81
2022-08-03T04:16:17.904Z,18.80
2022-08-03T04:17:09.511Z,18.80
2022-08-03T04:17:42.787Z,18.79
2022-08-03T04:18:16.033Z,18.80
2022-08-03T04:18:52.393Z,18.79
2022-08-03T04:19:29.367Z,18.78
2022-08-03T04:20:03.558Z,18.79
2022-08-03T04:21:30.020Z,18.80
2022-08-03T04:22:09.614Z,18.80
2022-08-03T04:22:42.029Z,18.79
2022-08-03T04:23:15.595Z,18.78
2022-08-03T04:23:50.999Z,18.80
2022-08-03T04:24:26.577Z,18.80
2022-08-03T04:25:27.720Z,18.81
2022-08-03T04:26:01.399Z,18.81
2022-08-03T04:26:36.164Z,18.79
2022-08-03T04:27:13.322Z,18.80
2022-08-03T04:28:29.790Z,18.79
2022-08-03T04:28:43.323Z,18.79
2022-08-03T04:29:15.812Z,18.79
2022-08-03T04:29:51.575Z,18.78
2022-08-03T04:30:23.243Z,18.79
2022-08-03T04:30:56.978Z,18.78
2022-08-03T04:31:29.990Z,18.79
2022-08-03T04:32:03.145Z,18.79
2022-08-03T04:32:36.982Z,18.79
2022-08-03T04:33:08.388Z,18.82
2022-08-03T04:33:42.608Z,18.80
2022-08-03T04:34:14.011Z,18.80
2022-08-03T04:34:45.820Z,18.81
2022-08-03T04:35:18.664Z,18.81
2022-08-03T04:36:13.096Z,18.81
2022-08-03T04:36:49.841Z,18.82
2022-08-03T04:37:43.275Z,18.81
2022-08-03T04:38:18.412Z,18.78
2022-08-03T04:39:13.391Z,18.78
2022-08-03T04:40:05.937Z,18.78
2022-08-03T04:40:41.110Z,18.78
2022-08-03T04:41:13.198Z,18.78
2022-08-03T04:42:07.783Z,18.77
2022-08-03T04:42:39.501Z,18.78
2022-08-03T04:43:14.942Z,18.79
2022-08-03T04:43:49.603Z,18.79
2022-08-03T04:44:28.287Z,18.79
2022-08-03T04:45:02.000Z,18.80
2022-08-03T04:45:34.167Z,18.81
2022-08-03T04:46:08.146Z,18.80
2022-08-03T04:46:39.973Z,18.81
2022-08-03T04:47:18.226Z,18.81
2022-08-03T04:47:50.532Z,18.82
2022-08-03T04:48:22.382Z,18.82
2022-08-03T04:48:54.770Z,18.82
2022-08-03T04:49:27.162Z,18.82
2022-08-03T04:50:00.889Z,18.83
2022-08-03T04:50:32.679Z,18.84
2022-08-03T04:51:04.470Z,18.85
2022-08-03T04:51:38.963Z,18.83
2022-08-03T04:52:11.013Z,18.84
2022-08-03T04:52:42.953Z,18.85
2022-08-03T04:53:14.375Z,18.84
2022-08-03T04:53:45.877Z,18.83
2022-08-03T04:55:29.798Z,18.83
2022-08-03T04:56:05.698Z,18.83
2022-08-03T04:56:40.080Z,18.84
2022-08-03T04:57:30.173Z,18.81
2022-08-03T04:58:02.764Z,18.81
2022-08-03T04:58:34.164Z,18.81
2022-08-03T04:59:05.579Z,18.81
2022-08-03T04:59:39.227Z,18.82
2022-08-03T05:00:50.107Z,18.84
2022-08-03T05:01:22.488Z,18.83
2022-08-03T05:02:12.585Z,18.83
2022-08-03T05:02:43.987Z,18.82
2022-08-03T05:03:23.828Z,18.82
2022-08-03T05:03:55.851Z,18.83
2022-08-03T05:04:27.303Z,18.83
2022-08-03T05:04:59.142Z,18.84
2022-08-03T05:05:48.649Z,18.85
2022-08-03T05:06:47.860Z,18.83
2022-08-03T05:07:24.867Z,18.83
2022-08-03T05:07:56.691Z,18.82
2022-08-03T05:08:28.459Z,18.80
2022-08-03T05:08:59.860Z,18.80
2022-08-03T05:09:49.623Z,18.79
2022-08-03T05:10:22.446Z,18.80
2022-08-03T05:10:53.818Z,18.81
2022-08-03T05:11:25.213Z,18.80
2022-08-03T05:12:15.725Z,18.82
2022-08-03T05:12:48.920Z,18.84
2022-08-03T05:13:20.261Z,18.84
2022-08-03T05:13:51.687Z,18.85
2022-08-03T05:14:28.074Z,18.86
2022-08-03T05:15:00.522Z,18.86
2022-08-03T05:15:31.876Z,18.86
2022-08-03T05:16:03.336Z,18.86
2022-08-03T05:16:34.733Z,18.85
2022-08-03T05:17:06.280Z,18.85
2022-08-03T05:17:37.643Z,18.85
2022-08-03T05:18:27.475Z,18.84
2022-08-03T05:18:58.808Z,18.84
2022-08-03T05:20:38.383Z,18.81
2022-08-03T05:21:10.636Z,18.80
2022-08-03T05:21:52.461Z,18.80
2022-08-03T05:22:43.652Z,18.81
2022-08-03T05:23:15.280Z,18.82
2022-08-03T05:23:46.614Z,18.83
2022-08-03T05:24:17.999Z,18.83
2022-08-03T05:24:49.463Z,18.84
2022-08-03T05:25:23.348Z,18.83
2022-08-03T05:25:58.542Z,18.85
2022-08-03T05:26:30.067Z,18.85
2022-08-03T05:27:01.433Z,18.86
2022-08-03T05:27:51.563Z,18.85
2022-08-03T05:28:23.000Z,18.84
2022-08-03T05:29:43.517Z,18.84
2022-08-03T05:30:31.136Z,18.83
2022-08-03T05:31:25.471Z,18.83
2022-08-03T05:31:56.836Z,18.83
2022-08-03T05:32:28.192Z,18.83
2022-08-03T05:32:59.953Z,18.83
2022-08-03T05:33:49.912Z,18.84
2022-08-03T05:34:21.254Z,18.84
2022-08-03T05:34:52.739Z,18.85
2022-08-03T05:35:57.187Z,18.85
2022-08-03T05:36:16.808Z,18.85
2022-08-03T05:37:07.349Z,18.85
2022-08-03T05:37:39.256Z,18.84
2022-08-03T05:38:28.617Z,18.84
2022-08-03T05:39:02.814Z,18.85
2022-08-03T05:39:34.603Z,18.85
2022-08-03T05:41:20.037Z,18.86
2022-08-03T05:41:48.255Z,18.87
2022-08-03T05:42:38.256Z,18.87
2022-08-03T05:43:09.605Z,18.87
2022-08-03T05:43:41.028Z,18.87
2022-08-03T05:44:12.375Z,18.88
2022-08-03T05:44:43.718Z,18.87
2022-08-03T05:45:15.175Z,18.88
2022-08-03T05:45:46.479Z,18.88
2022-08-03T05:46:37.907Z,18.88
2022-08-03T05:47:09.500Z,18.88
2022-08-03T05:47:46.480Z,18.88
2022-08-03T05:49:06.582Z,18.90
2022-08-03T05:49:38.079Z,18.91
2022-08-03T05:50:13.164Z,18.91
2022-08-03T05:50:44.511Z,18.91
2022-08-03T05:51:16.019Z,18.92
2022-08-03T05:51:47.426Z,18.93
2022-08-03T05:52:31.208Z,18.93
2022-08-03T05:53:02.963Z,18.94
2022-08-03T05:53:35.054Z,18.95
2022-08-03T05:54:06.415Z,18.95
2022-08-03T05:54:55.320Z,18.95
2022-08-03T05:55:29.007Z,18.97
2022-08-03T05:56:14.576Z,18.99
2022-08-03T05:56:46.930Z,19.01
2022-08-03T05:57:18.296Z,19.04
2022-08-03T05:57:49.696Z,19.04
2022-08-03T05:58:21.546Z,19.06
2022-08-03T05:59:54.616Z,19.08
2022-08-03T06:00:30.256Z,19.11
2022-08-03T06:01:02.584Z,19.10
2022-08-03T06:01:34.008Z,19.12
2022-08-03T06:02:05.573Z,19.14
2022-08-03T06:02:37.283Z,19.14
2022-08-03T06:03:08.603Z,19.15
2022-08-03T06:03:40.467Z,19.17
2022-08-03T06:04:12.018Z,19.18
2022-08-03T06:04:43.354Z,19.19
2022-08-03T06:06:03.503Z,19.21
2022-08-03T06:06:34.819Z,19.22
2022-08-03T06:07:06.157Z,19.23
2022-08-03T06:07:37.932Z,19.25
2022-08-03T06:08:09.308Z,19.26
2022-08-03T06:08:42.563Z,19.28
2022-08-03T06:09:13.952Z,19.29
2022-08-03T06:10:36.061Z,19.30
2022-08-03T06:10:56.284Z,19.29
2022-08-03T06:11:27.652Z,19.31
2022-08-03T06:11:59.003Z,19.32
2022-08-03T06:12:50.157Z,19.33
2022-08-03T06:13:21.991Z,19.37
2022-08-03T06:14:12.237Z,19.37
2022-08-03T06:14:43.604Z,19.37
2022-08-03T06:15:15.617Z,19.37
2022-08-03T06:15:46.944Z,19.39
2022-08-03T06:16:18.331Z,19.40
2022-08-03T06:16:49.676Z,19.42
2022-08-03T06:17:21.018Z,19.43
2022-08-03T06:17:52.694Z,19.46
2022-08-03T06:18:24.620Z,19.46
2022-08-03T06:18:55.987Z,19.47
2022-08-03T06:19:27.432Z,19.48
2022-08-03T06:19:58.807Z,19.49
2022-08-03T06:20:30.245Z,19.51
2022-08-03T06:21:14.477Z,19.51
2022-08-03T06:22:05.900Z,19.53
2022-08-03T06:22:37.247Z,19.54
2022-08-03T06:23:22.428Z,19.54
2022-08-03T06:24:12.664Z,19.55
2022-08-03T06:24:53.544Z,19.55
2022-08-03T06:25:25.930Z,19.56
2022-08-03T06:25:57.413Z,19.57
2022-08-03T06:26:28.849Z,19.58
2022-08-03T06:27:00.415Z,19.59
2022-08-03T06:27:37.319Z,19.60
2022-08-03T06:28:15.013Z,19.62
2022-08-03T06:29:13.794Z,19.66
2022-08-03T06:29:45.168Z,19.67
2022-08-03T06:30:21.048Z,19.69
2022-08-03T06:30:52.707Z,19.71
2022-08-03T06:31:33.018Z,19.74
2022-08-03T06:32:05.513Z,19.74
2022-08-03T06:32:38.099Z,19.76
2022-08-03T06:34:31.243Z,19.77
2022-08-03T06:34:32.542Z,19.78
2022-08-03T06:35:08.512Z,19.80
2022-08-03T06:35:40.483Z,19.80
2022-08-03T06:36:13.887Z,19.81
2022-08-03T06:36:45.328Z,19.82
2022-08-03T06:37:16.711Z,19.83
2022-08-03T06:37:50.254Z,19.84
2022-08-03T06:38:21.871Z,19.86
2022-08-03T06:38:53.196Z,19.86
2022-08-03T06:39:24.526Z,19.90
2022-08-03T06:39:55.918Z,19.91
2022-08-03T06:40:31.304Z,19.92
2022-08-03T06:41:02.739Z,19.94
2022-08-03T06:41:38.203Z,19.96
2022-08-03T06:42:16.175Z,19.97
2022-08-03T06:42:47.665Z,19.98
2022-08-03T06:43:21.662Z,19.98
2022-08-03T06:44:03.031Z,19.99
2022-08-03T06:44:37.535Z,20.00
2022-08-03T06:45:09.721Z,20.00
2022-08-03T06:45:41.836Z,20.01
2022-08-03T06:46:13.273Z,20.00
2022-08-03T06:46:44.707Z,20.03
2022-08-03T06:47:16.273Z,20.02
2022-08-03T06:47:48.022Z,19.99
2022-08-03T06:48:39.393Z,20.07
2022-08-03T06:49:16.111Z,20.05
2022-08-03T06:50:16.485Z,20.05
2022-08-03T06:50:41.632Z,20.11
2022-08-03T06:51:17.359Z,20.12
2022-08-03T06:52:03.277Z,20.14
2022-08-03T06:52:37.692Z,20.16
2022-08-03T06:53:19.762Z,20.21
2022-08-03T06:53:52.735Z,20.21
2022-08-03T06:54:24.738Z,20.22
2022-08-03T06:54:56.525Z,20.25
2022-08-03T06:55:28.440Z,20.28
2022-08-03T06:56:00.246Z,20.27
2022-08-03T06:56:31.817Z,20.28
2022-08-03T06:57:03.781Z,20.31
2022-08-03T06:57:35.313Z,20.31
2022-08-03T06:58:06.816Z,20.32
2022-08-03T06:58:38.459Z,20.31
2022-08-03T07:00:07.445Z,20.30
2022-08-03T07:00:08.644Z,20.33
2022-08-03T07:01:02.255Z,20.34
2022-08-03T07:01:34.323Z,20.36
2022-08-03T07:02:09.810Z,20.35
2022-08-03T07:02:41.621Z,20.36
2022-08-03T07:03:13.367Z,20.35
2022-08-03T07:03:52.059Z,20.38
2022-08-03T07:04:24.223Z,20.35
2022-08-03T07:04:58.945Z,20.39
2022-08-03T07:05:33.612Z,20.36
2022-08-03T07:06:05.450Z,20.35
2022-08-03T07:06:38.310Z,20.34
2022-08-03T07:07:09.945Z,20.34
2022-08-03T07:07:44.721Z,20.33
2022-08-03T07:08:19.452Z,20.34
2022-08-03T07:09:08.441Z,20.34
2022-08-03T07:09:40.124Z,20.39
2022-08-03T07:10:13.516Z,20.41
2022-08-03T07:11:37.290Z,20.45
2022-08-03T07:12:58.034Z,20.46
2022-08-03T07:13:29.700Z,20.45
2022-08-03T07:14:01.348Z,20.49
2022-08-03T07:14:51.761Z,20.52
2022-08-03T07:15:53.970Z,20.50
2022-08-03T07:16:15.026Z,20.51
2022-08-03T07:16:46.642Z,20.53
2022-08-03T07:18:08.362Z,20.55
2022-08-03T07:18:58.174Z,20.59
2022-08-03T07:19:29.792Z,20.58
2022-08-03T07:20:03.504Z,20.57
2022-08-03T07:20:35.112Z,20.60
2022-08-03T07:21:09.017Z,20.59
2022-08-03T07:21:40.727Z,20.65
2022-08-03T07:22:30.867Z,20.67
2022-08-03T07:23:02.328Z,20.71
2022-08-03T07:23:34.745Z,20.74
2022-08-03T07:24:06.281Z,20.74
2022-08-03T07:24:38.052Z,20.79
2022-08-03T07:25:10.155Z,20.80
2022-08-03T07:25:41.808Z,20.80
2022-08-03T07:26:16.121Z,20.83
2022-08-03T07:26:47.545Z,20.84
2022-08-03T07:27:19.915Z,20.86
2022-08-03T07:27:51.890Z,20.86
2022-08-03T07:28:42.393Z,20.89
2022-08-03T07:29:15.496Z,20.88
2022-08-03T07:29:47.026Z,20.87
2022-08-03T07:30:18.563Z,20.88
2022-08-03T07:30:50.214Z,20.91
2022-08-03T07:31:21.639Z,20.92
2022-08-03T07:31:53.093Z,20.97
2022-08-03T07:32:25.081Z,20.99
2022-08-03T07:32:56.639Z,21.02
2022-08-03T07:33:46.529Z,21.03
2022-08-03T07:34:18.039Z,21.08
2022-08-03T07:34:49.443Z,21.08
2022-08-03T07:35:24.924Z,21.08
2022-08-03T07:36:15.607Z,21.10
2022-08-03T07:36:47.073Z,21.08
2022-08-03T07:37:18.561Z,21.08
2022-08-03T07:37:54.303Z,21.07
2022-08-03T07:38:27.634Z,21.04
2022-08-03T07:38:59.084Z,21.06
2022-08-03T07:39:30.754Z,21.08
2022-08-03T07:40:04.186Z,21.08
2022-08-03T07:40:36.043Z,21.13
2022-08-03T07:41:07.510Z,21.16
2022-08-03T07:41:39.149Z,21.18
2022-08-03T07:42:13.417Z,21.20
2022-08-03T07:42:44.881Z,21.26
2022-08-03T07:43:17.532Z,21.28
2022-08-03T07:43:49.132Z,21.32
2022-08-03T07:44:20.838Z,21.37
2022-08-03T07:44:52.376Z,21.36
2022-08-03T07:45:24.562Z,21.36
2022-08-03T07:45:56.076Z,21.36
2022-08-03T07:46:27.570Z,21.40
2022-08-03T07:47:53.331Z,21.40
2022-08-03T07:48:25.656Z,21.43
2022-08-03T07:48:57.275Z,21.41
2022-08-03T07:49:29.010Z,21.40
2022-08-03T07:50:00.742Z,21.43
2022-08-03T07:50:32.333Z,21.43
2022-08-03T07:51:05.779Z,21.46
2022-08-03T07:51:37.879Z,21.48
2022-08-03T07:52:51.309Z,21.48
2022-08-03T07:53:22.810Z,21.53
2022-08-03T07:53:57.487Z,21.49
2022-08-03T07:54:29.256Z,21.47
2022-08-03T07:55:00.870Z,21.50
2022-08-03T07:55:32.359Z,21.51
2022-08-03T07:56:04.004Z,21.52
2022-08-03T07:56:43.154Z,21.56
2022-08-03T07:57:14.704Z,21.57
2022-08-03T07:57:46.905Z,21.58
2022-08-03T07:58:24.157Z,21.61
2022-08-03T07:58:58.869Z,21.64
2022-08-03T07:59:30.449Z,21.66
2022-08-03T08:00:22.233Z,21.69
2022-08-03T08:00:53.944Z,21.73
2022-08-03T08:01:32.769Z,21.75
2022-08-03T08:02:06.996Z,21.78
2022-08-03T08:02:38.799Z,21.81
2022-08-03T08:03:11.436Z,21.84
2022-08-03T08:03:53.306Z,21.83
2022-08-03T08:04:26.650Z,21.85
2022-08-03T08:05:02.153Z,21.83
2022-08-03T08:05:37.537Z,21.86
2022-08-03T08:06:09.220Z,21.88
2022-08-03T08:06:40.935Z,21.88
2022-08-03T08:07:12.414Z,21.92
2022-08-03T08:08:02.169Z,21.93
2022-08-03T08:08:33.554Z,22.01
2022-08-03T08:09:04.934Z,22.05
2022-08-03T08:09:36.550Z,22.07
2022-08-03T08:10:10.093Z,22.10
2022-08-03T08:10:58.238Z,22.08
2022-08-03T08:11:34.810Z,22.10
2022-08-03T08:12:30.501Z,22.12
2022-08-03T08:13:03.536Z,22.15
2022-08-03T08:13:38.196Z,22.18
2022-08-03T08:14:15.543Z,22.22
2022-08-03T08:14:51.704Z,22.24